Time;durP1;ratioP1;P1;durP2;ratioP2;P2;SDS_P1;SDS_P2;PMS_P1;PMS_P2;Temp;Humidity;BMP_temperature;BMP_pressure;BME280_temperature;BME280_humidity;BME280_pressure;Samples;Min_cycle;Max_cycle;Signal;HPM_P1;HPM_P2
2022/08/13 00:00:09;;;;;;;4.27;2.40;;;;;;;18.23;49.83;100132.47;5004780;28;20179;-78
2022/08/13 00:02:36;;;;;;;3.43;2.43;;;;;;;18.25;49.99;100128.91;5044302;28;20195;-77
2022/08/13 00:05:04;;;;;;;6.83;3.07;;;;;;;18.22;50.16;100127.38;5014621;28;20263;-76
2022/08/13 00:07:30;;;;;;;3.87;2.97;;;;;;;18.07;51.09;100126.91;5013221;28;20266;-74
2022/08/13 00:09:56;;;;;;;5.20;2.50;;;;;;;18.08;50.92;100128.56;5014989;28;20203;-76
2022/08/13 00:15:28;;;;;;;4.97;2.90;;;;;;;18.00;51.22;100126.63;5014755;28;20241;-73
2022/08/13 00:17:57;;;;;;;6.47;2.57;;;;;;;18.03;51.16;100128.94;5046511;28;20182;-75
2022/08/13 00:20:28;;;;;;;5.13;2.40;;;;;;;18.03;50.56;100126.34;5006492;28;20193;-76
2022/08/13 00:22:56;;;;;;;6.00;2.20;;;;;;;18.05;50.46;100118.44;5010330;28;20189;-77
2022/08/13 00:25:23;;;;;;;5.90;2.40;;;;;;;18.00;51.04;100115.41;5013195;28;20615;-78
2022/08/13 00:27:49;;;;;;;3.53;2.73;;;;;;;17.99;50.89;100116.34;5014776;28;20186;-74
2022/08/13 00:30:16;;;;;;;4.93;2.50;;;;;;;17.95;51.01;100128.78;5007639;28;20271;-76
2022/08/13 00:32:45;;;;;;;6.70;2.50;;;;;;;17.88;51.57;100122.44;5043017;28;20256;-74
2022/08/13 00:35:12;;;;;;;6.73;2.53;;;;;;;17.89;51.60;100119.69;5014371;28;20649;-75
2022/08/13 00:37:41;;;;;;;2.50;2.30;;;;;;;17.85;51.72;100120.91;5013322;28;20187;-78
2022/08/13 00:40:09;;;;;;;3.00;2.60;;;;;;;17.88;52.13;100112.03;5003967;28;20647;-76
2022/08/13 00:42:37;;;;;;;2.60;2.40;;;;;;;17.80;52.52;100111.84;5028781;28;20183;-73
2022/08/13 00:45:08;;;;;;;3.23;2.07;;;;;;;17.71;52.44;100111.69;5012636;28;20203;-75
2022/08/13 00:50:19;;;;;;;2.50;2.30;;;;;;;17.66;52.91;100107.81;5012893;28;20712;-79
2022/08/13 00:52:44;;;;;;;3.67;2.10;;;;;;;17.64;53.08;100109.72;5042039;28;20195;-75
2022/08/13 00:55:17;;;;;;;5.07;2.40;;;;;;;17.63;52.83;100116.69;5013891;28;20179;-75
2022/08/13 00:57:47;;;;;;;3.33;2.03;;;;;;;17.56;53.22;100115.56;5012926;28;20189;-74
2022/08/13 01:00:20;;;;;;;2.93;2.00;;;;;;;17.58;53.36;100108.47;5036601;28;20190;-73
2022/08/13 01:02:51;;;;;;;4.33;1.73;;;;;;;17.56;53.08;100107.75;5012382;28;20228;-72
2022/08/13 01:05:16;;;;;;;3.67;1.73;;;;;;;17.54;52.55;100107.09;5014401;28;20186;-74
2022/08/13 01:07:42;;;;;;;3.53;1.83;;;;;;;17.59;52.83;100112.72;5006160;28;20720;-82
2022/08/13 01:10:09;;;;;;;3.63;1.73;;;;;;;17.47;54.05;100117.16;4996289;28;20630;-82
2022/08/13 01:12:37;;;;;;;7.33;2.10;;;;;;;17.49;53.22;100111.81;5042547;28;20269;-83
2022/08/13 01:15:04;;;;;;;2.07;1.60;;;;;;;17.48;53.00;100113.59;4997368;28;20176;-82
2022/08/13 01:17:31;;;;;;;5.77;1.73;;;;;;;17.50;53.10;100116.06;5018409;28;20203;-83
2022/08/13 01:19:56;;;;;;;2.10;1.73;;;;;;;17.49;53.48;100117.03;5045331;28;20244;-81
2022/08/13 01:22:25;;;;;;;2.67;1.90;;;;;;;17.49;52.77;100114.41;5035432;28;20724;-82
2022/08/13 01:24:51;;;;;;;4.10;1.93;;;;;;;17.46;53.76;100117.28;5011843;28;20182;-82
2022/08/13 01:27:23;;;;;;;3.13;1.80;;;;;;;17.52;53.72;100112.38;5013658;28;20179;-83
2022/08/13 01:29:49;;;;;;;1.43;1.33;;;;;;;17.47;54.22;100111.16;5017928;28;20613;-82
2022/08/13 01:32:16;;;;;;;2.70;1.93;;;;;;;17.48;54.51;100110.19;5020107;28;20229;-81
2022/08/13 01:34:48;;;;;;;6.20;1.97;;;;;;;17.39;54.80;100115.19;4998781;28;20188;-81
2022/08/13 01:37:14;;;;;;;3.57;1.90;;;;;;;17.41;55.26;100115.91;4998420;28;20195;-81
2022/08/13 01:39:40;;;;;;;4.63;1.93;;;;;;;17.44;56.21;100109.63;5028779;28;20201;-82
2022/08/13 01:42:20;;;;;;;2.53;1.80;;;;;;;17.35;56.37;100111.22;5034838;28;20571;-82
2022/08/13 01:44:49;;;;;;;2.73;1.80;;;;;;;17.32;56.36;100118.44;5044837;28;20205;-81
2022/08/13 01:52:45;;;;;;;2.10;1.70;;;;;;;17.19;56.25;100122.06;5002100;28;20269;-80
2022/08/13 01:55:11;;;;;;;5.83;1.60;;;;;;;17.17;56.66;100110.94;5013139;28;20294;-83
2022/08/13 01:57:40;;;;;;;4.50;1.80;;;;;;;17.08;56.39;100106.53;5011720;28;20182;-84
2022/08/13 02:00:13;;;;;;;3.40;1.60;;;;;;;17.01;56.76;100105.38;5001893;28;20211;-85
2022/08/13 02:02:42;;;;;;;2.13;1.63;;;;;;;16.93;57.44;100108.56;5026648;28;20599;-84
2022/08/13 02:05:10;;;;;;;2.63;1.67;;;;;;;16.82;57.83;100113.78;5021827;28;20213;-82
2022/08/13 02:07:37;;;;;;;2.23;1.73;;;;;;;16.83;57.90;100100.69;5011477;28;20711;-85
2022/08/13 02:10:03;;;;;;;2.90;1.50;;;;;;;16.84;57.36;100109.31;5008573;28;20203;-83
2022/08/13 02:12:29;;;;;;;2.87;1.60;;;;;;;16.91;57.00;100108.69;5043244;28;20643;-82
2022/08/13 02:14:58;;;;;;;1.60;1.50;;;;;;;16.80;58.69;100113.91;5018593;28;20170;-82
2022/08/13 02:17:27;;;;;;;3.80;1.63;;;;;;;16.75;58.42;100111.69;5012740;28;20189;-82
2022/08/13 02:19:53;;;;;;;3.10;1.57;;;;;;;16.75;58.25;100111.69;5028056;28;20175;-84
2022/08/13 02:22:20;;;;;;;3.83;1.60;;;;;;;16.76;58.09;100112.53;5018752;28;20328;-83
2022/08/13 02:24:53;;;;;;;2.63;1.43;;;;;;;16.70;58.30;100108.63;5043661;28;20174;-83
2022/08/13 02:27:21;;;;;;;5.43;1.60;;;;;;;16.72;58.36;100106.75;5011069;28;20218;-84
2022/08/13 02:29:52;;;;;;;4.23;1.50;;;;;;;16.72;58.52;100114.53;5012611;28;20519;-84
2022/08/13 02:32:18;;;;;;;4.73;1.43;;;;;;;16.65;59.59;100110.78;5019060;28;20225;-83
2022/08/13 02:34:51;;;;;;;5.80;2.07;;;;;;;16.57;59.73;100111.41;5010701;28;20187;-81
2022/08/13 02:37:21;;;;;;;1.80;1.70;;;;;;;16.52;59.79;100108.34;5044031;28;20532;-81
2022/08/13 02:39:51;;;;;;;2.10;1.77;;;;;;;16.41;59.58;100111.78;5010989;28;20178;-81
2022/08/13 02:42:18;;;;;;;3.03;1.60;;;;;;;16.50;59.63;100109.41;5019393;28;20229;-81
2022/08/13 02:44:47;;;;;;;3.27;1.80;;;;;;;16.51;59.70;100105.84;5011947;28;20649;-81
2022/08/13 02:47:14;;;;;;;3.07;1.50;;;;;;;16.44;60.24;100102.94;5027345;28;20660;-79
2022/08/13 02:49:40;;;;;;;2.33;1.53;;;;;;;16.41;60.79;100105.75;5015236;28;20293;-80
2022/08/13 02:52:08;;;;;;;2.97;1.50;;;;;;;16.41;60.99;100109.19;5035977;28;20271;-80
2022/08/13 02:54:38;;;;;;;4.30;1.77;;;;;;;16.44;61.12;100108.94;5011100;28;20258;-80
2022/08/13 02:57:03;;;;;;;2.20;1.47;;;;;;;16.45;61.24;100114.97;5025654;28;20214;-83
2022/08/13 02:59:29;;;;;;;2.30;1.70;;;;;;;16.44;61.29;100116.72;5011339;28;20213;-84
2022/08/13 03:01:55;;;;;;;1.70;1.60;;;;;;;16.47;61.53;100118.25;5002882;28;20635;-83
2022/08/13 03:04:20;;;;;;;1.50;1.40;;;;;;;16.46;62.00;100114.03;5012527;28;20183;-82
2022/08/13 03:06:46;;;;;;;1.70;1.60;;;;;;;16.46;61.61;100117.44;5026979;28;20328;-82
2022/08/13 03:09:11;;;;;;;3.60;1.80;;;;;;;16.42;62.47;100116.03;5011691;28;20187;-82
2022/08/13 03:11:36;;;;;;;4.10;2.00;;;;;;;16.46;62.76;100120.03;5032972;28;20259;-82
2022/08/13 03:14:05;;;;;;;1.60;1.43;;;;;;;16.43;62.97;100122.88;5013527;28;20345;-85
2022/08/13 03:16:31;;;;;;;3.23;1.90;;;;;;;16.39;63.89;100110.25;5022979;28;20226;-86
2022/08/13 03:18:58;;;;;;;2.87;1.53;;;;;;;16.32;63.67;100112.50;4997202;28;20270;-85
2022/08/13 03:21:32;;;;;;;2.43;1.80;;;;;;;16.26;64.07;100107.78;5023319;28;20225;-85
2022/08/13 03:23:59;;;;;;;2.27;2.03;;;;;;;16.19;63.85;100110.03;5013993;28;20178;-82
2022/08/13 03:26:25;;;;;;;2.03;1.80;;;;;;;16.20;64.61;100105.66;5010613;28;20183;-83
2022/08/13 03:28:54;;;;;;;5.77;2.07;;;;;;;16.18;65.27;100104.97;5011766;28;20963;-83
2022/08/13 03:31:20;;;;;;;2.93;1.77;;;;;;;16.11;66.01;100107.22;4991550;28;20232;-82
2022/08/13 03:33:46;;;;;;;4.40;2.00;;;;;;;16.17;65.83;100109.34;5009038;28;20198;-80
2022/08/13 03:36:13;;;;;;;3.17;2.10;;;;;;;16.20;65.68;100100.47;5010348;28;20194;-84
2022/08/13 03:38:39;;;;;;;4.90;2.23;;;;;;;16.23;65.59;100111.44;5011545;28;20263;-83
2022/08/13 03:41:11;;;;;;;2.70;1.70;;;;;;;16.14;66.27;100109.59;5018582;28;20229;-84
2022/08/13 03:43:37;;;;;;;6.07;1.63;;;;;;;16.23;66.37;100114.03;5017277;28;20191;-82
2022/08/13 03:46:03;;;;;;;3.87;1.90;;;;;;;16.17;66.66;100108.53;5011411;28;20185;-83
2022/08/13 03:48:28;;;;;;;4.37;1.70;;;;;;;16.20;66.43;100109.09;5053407;28;20185;-82
2022/08/13 03:50:55;;;;;;;2.57;1.50;;;;;;;16.18;66.75;100104.97;5003474;28;20226;-83
2022/08/13 03:53:20;;;;;;;2.77;1.80;;;;;;;16.10;67.42;100108.16;5009610;28;20241;-82
2022/08/13 03:55:47;;;;;;;1.93;1.50;;;;;;;16.07;67.34;100105.81;5042673;28;20257;-82
2022/08/13 03:58:15;;;;;;;2.10;1.90;;;;;;;16.07;68.13;100103.22;5009815;28;20194;-82
2022/08/13 04:00:49;;;;;;;2.43;1.70;;;;;;;16.03;67.70;100104.41;5011604;28;20676;-83
2022/08/13 04:03:14;;;;;;;4.77;1.63;;;;;;;15.98;68.54;100104.75;5020272;28;20270;-82
2022/08/13 04:05:39;;;;;;;4.63;1.90;;;;;;;15.96;68.75;100107.47;5009482;28;20380;-82
2022/08/13 04:08:05;;;;;;;1.90;1.70;;;;;;;15.88;67.20;100106.41;5009727;28;20644;-82
2022/08/13 04:10:30;;;;;;;5.03;2.13;;;;;;;15.82;66.32;100098.13;5008652;28;20233;-82
2022/08/13 04:12:56;;;;;;;2.20;1.60;;;;;;;15.79;66.92;100102.72;5022711;28;20230;-86
2022/08/13 04:15:21;;;;;;;1.97;1.50;;;;;;;15.81;66.71;100106.00;5020978;28;20637;-68
2022/08/13 04:17:46;;;;;;;2.77;1.93;;;;;;;15.81;66.46;100099.06;5012594;28;20273;-68
2022/08/13 04:20:12;;;;;;;2.63;2.00;;;;;;;15.74;66.52;100103.06;5002545;28;20265;-68
2022/08/13 04:22:38;;;;;;;2.77;1.90;;;;;;;15.89;66.12;100105.44;5043140;28;20261;-67
2022/08/13 04:25:05;;;;;;;5.83;1.90;;;;;;;15.95;66.42;100100.63;5013124;28;20278;-67
2022/08/13 04:27:32;;;;;;;4.37;2.17;;;;;;;16.04;65.86;100104.28;5014734;28;20578;-67
2022/08/13 04:29:58;;;;;;;3.90;2.00;;;;;;;16.12;65.70;100094.16;5013022;28;20642;-67
2022/08/13 04:32:25;;;;;;;2.70;2.03;;;;;;;16.19;66.00;100104.03;5036858;28;20337;-67
2022/08/13 04:34:50;;;;;;;4.20;2.37;;;;;;;16.39;64.36;100105.06;5013081;28;20704;-67
2022/08/13 04:37:16;;;;;;;4.93;2.20;;;;;;;16.24;66.54;100100.13;5013029;28;20183;-67
2022/08/13 04:39:42;;;;;;;3.53;1.93;;;;;;;16.46;64.36;100101.84;5013223;28;20179;-68
2022/08/13 04:42:08;;;;;;;2.00;1.80;;;;;;;16.45;66.12;100113.19;5036314;28;20221;-68
2022/08/13 04:44:35;;;;;;;4.67;2.47;;;;;;;16.57;65.24;100111.41;5012703;28;20239;-68
2022/08/13 04:47:00;;;;;;;3.83;1.90;;;;;;;16.51;65.62;100117.06;5012912;28;20241;-68
2022/08/13 04:49:25;;;;;;;2.03;1.90;;;;;;;16.63;64.66;100123.06;5013248;28;20182;-68
2022/08/13 04:51:51;;;;;;;1.70;1.60;;;;;;;16.73;64.04;100120.53;5020544;28;20654;-68
2022/08/13 04:54:19;;;;;;;3.27;1.87;;;;;;;16.65;64.47;100110.78;5013617;28;20190;-67
2022/08/13 04:56:45;;;;;;;1.83;1.60;;;;;;;16.64;65.52;100119.50;5001821;28;20183;-68
2022/08/13 04:59:10;;;;;;;2.37;2.17;;;;;;;16.75;65.11;100116.88;5004460;28;20262;-67
2022/08/13 05:01:36;;;;;;;6.63;1.47;;;;;;;16.88;62.48;100113.28;5028940;28;20221;-68
2022/08/13 05:04:01;;;;;;;1.70;1.60;;;;;;;16.94;64.36;100111.06;5016129;28;20202;-67
2022/08/13 05:06:27;;;;;;;2.57;1.70;;;;;;;16.90;64.26;100114.81;5014110;28;20642;-67
2022/08/13 05:08:53;;;;;;;2.83;1.77;;;;;;;16.93;63.63;100119.81;5029055;28;20243;-67
2022/08/13 05:11:19;;;;;;;2.40;1.80;;;;;;;16.81;63.15;100112.97;5016032;28;20664;-67
2022/08/13 05:13:45;;;;;;;3.77;1.83;;;;;;;16.95;62.89;100124.88;5018077;28;20210;-67
2022/08/13 05:16:16;;;;;;;2.00;1.90;;;;;;;17.10;62.77;100122.78;5018955;28;20658;-67
2022/08/13 05:18:50;;;;;;;2.70;1.90;;;;;;;17.30;61.13;100117.75;5012648;28;20178;-67
2022/08/13 05:21:16;;;;;;;4.53;1.80;;;;;;;17.38;61.12;100121.34;5038797;28;20694;-67
2022/08/13 05:23:42;;;;;;;2.13;1.87;;;;;;;17.40;60.69;100116.84;5012106;28;20274;-67
2022/08/13 05:26:08;;;;;;;2.33;1.90;;;;;;;17.66;59.79;100126.88;5013263;28;20666;-67
2022/08/13 05:28:34;;;;;;;2.70;2.17;;;;;;;17.79;59.09;100131.03;5013513;28;20555;-67
2022/08/13 05:31:00;;;;;;;5.97;2.07;;;;;;;17.89;59.04;100134.50;5013424;28;20621;-67
2022/08/13 05:33:28;;;;;;;3.10;1.70;;;;;;;17.96;61.02;100132.22;5030096;28;20215;-67
2022/08/13 05:35:58;;;;;;;5.90;2.00;;;;;;;17.97;61.52;100136.47;5011698;28;20646;-68
2022/08/13 05:38:25;;;;;;;3.73;2.07;;;;;;;18.05;62.69;100137.47;5013480;28;20660;-67
2022/08/13 05:40:56;;;;;;;6.10;2.13;;;;;;;18.10;62.34;100134.47;5011990;28;20224;-68
2022/08/13 05:43:24;;;;;;;4.10;1.80;;;;;;;18.33;59.78;100142.06;5021039;28;20183;-68
2022/08/13 05:45:59;;;;;;;3.00;1.87;;;;;;;18.55;61.33;100143.63;5012835;28;20183;-67
2022/08/13 05:48:27;;;;;;;7.73;2.07;;;;;;;18.57;57.47;100136.50;5012039;28;20190;-67
2022/08/13 05:50:53;;;;;;;6.03;2.10;;;;;;;18.84;58.12;100140.22;5016061;28;20220;-67
2022/08/13 05:53:19;;;;;;;2.77;1.77;;;;;;;19.00;59.85;100139.72;5020904;28;21055;-67
2022/08/13 05:55:44;;;;;;;6.90;2.10;;;;;;;19.21;59.57;100151.78;5012881;28;20186;-67
2022/08/13 05:58:12;;;;;;;3.47;1.80;;;;;;;19.25;57.22;100150.53;5012854;28;20198;-67
2022/08/13 06:03:24;;;;;;;4.50;2.07;;;;;;;19.33;54.92;100155.88;5030366;28;20208;-67
2022/08/13 06:05:53;;;;;;;3.20;1.83;;;;;;;19.46;55.35;100146.00;5012171;28;20586;-68
2022/08/13 06:08:23;;;;;;;1.93;1.70;;;;;;;19.69;52.47;100143.03;5012818;28;20241;-67
2022/08/13 06:10:48;;;;;;;3.40;2.00;;;;;;;19.84;51.00;100140.81;5015138;28;20236;-67
2022/08/13 06:13:16;;;;;;;5.33;1.90;;;;;;;19.72;49.93;100144.53;5031968;28;20214;-68
2022/08/13 06:15:43;;;;;;;4.60;2.03;;;;;;;19.94;50.71;100146.00;5016520;28;20244;-68
2022/08/13 06:18:11;;;;;;;6.77;1.90;;;;;;;20.21;48.34;100144.41;5027575;28;20656;-68
2022/08/13 06:20:41;;;;;;;4.00;2.00;;;;;;;20.41;48.28;100145.09;5011440;28;20236;-67
2022/08/13 06:23:12;;;;;;;3.93;2.00;;;;;;;20.38;47.93;100137.53;5022314;28;20198;-68
2022/08/13 06:25:38;;;;;;;6.63;1.87;;;;;;;20.57;47.55;100142.66;5006661;28;20207;-68
2022/08/13 06:28:10;;;;;;;3.97;1.63;;;;;;;20.53;47.32;100137.84;5002862;28;20248;-67
2022/08/13 06:30:36;;;;;;;4.43;1.97;;;;;;;20.66;47.40;100137.50;4999029;28;20318;-74
2022/08/13 06:33:02;;;;;;;3.57;1.97;;;;;;;20.91;47.41;100139.41;5034156;28;20210;-73
2022/08/13 06:35:28;;;;;;;7.53;1.60;;;;;;;21.36;45.51;100137.63;5009403;28;20178;-74
2022/08/13 06:37:54;;;;;;;6.47;1.63;;;;;;;21.49;44.85;100141.66;5011859;28;20189;-74
2022/08/13 06:40:23;;;;;;;4.73;1.77;;;;;;;21.89;44.14;100143.69;5005974;28;20171;-74
2022/08/13 06:42:48;;;;;;;5.53;1.80;;;;;;;22.46;42.35;100144.88;5024865;28;20249;-74
2022/08/13 06:45:14;;;;;;;8.33;2.13;;;;;;;22.98;40.62;100146.44;5010695;28;20575;-74
2022/08/13 06:47:40;;;;;;;2.50;1.63;;;;;;;23.87;39.27;100137.00;5015333;28;20186;-74
2022/08/13 06:50:10;;;;;;;3.00;1.63;;;;;;;26.56;34.45;100143.66;5009097;28;20194;-73
2022/08/13 06:52:37;;;;;;;3.93;1.33;;;;;;;28.71;29.74;100146.78;5040229;28;20203;-74
2022/08/13 06:55:04;;;;;;;6.40;1.95;;;;;;;28.99;28.98;100152.69;5010412;28;20244;-74
2022/08/13 06:57:31;;;;;;;3.10;1.23;;;;;;;30.95;26.10;100148.28;5010272;28;20183;-74
2022/08/13 06:59:57;;;;;;;5.82;1.60;;;;;;;30.67;26.13;100161.97;5011940;28;20672;-74
2022/08/13 07:02:24;;;;;;;2.47;1.40;;;;;;;30.90;26.57;100161.41;4993066;28;20305;-74
2022/08/13 07:04:50;;;;;;;5.20;1.67;;;;;;;31.70;24.75;100170.50;5010311;28;20190;-74
2022/08/13 07:07:18;;;;;;;2.60;1.20;;;;;;;30.08;26.29;100164.72;5010442;28;20589;-74
2022/08/13 07:09:46;;;;;;;4.57;1.20;;;;;;;30.55;26.60;100165.34;5011257;28;20191;-74
2022/08/13 07:12:12;;;;;;;2.55;1.30;;;;;;;30.04;26.78;100167.00;5018686;28;20244;-74
2022/08/13 07:14:41;;;;;;;3.20;1.58;;;;;;;29.81;27.46;100167.47;5016385;28;20564;-74
2022/08/13 07:17:06;;;;;;;2.10;0.98;;;;;;;30.56;26.00;100166.13;5009498;28;20237;-74
2022/08/13 07:19:33;;;;;;;2.35;1.40;;;;;;;30.54;26.43;100169.00;5010902;28;20187;-74
2022/08/13 07:21:58;;;;;;;2.35;1.05;;;;;;;31.62;24.59;100168.09;5032134;28;20229;-74
2022/08/13 07:24:26;;;;;;;5.03;1.00;;;;;;;32.87;22.98;100167.72;5010830;28;20594;-74
2022/08/13 07:26:51;;;;;;;3.55;1.40;;;;;;;33.37;21.98;100175.31;5026986;28;20186;-72
2022/08/13 07:29:19;;;;;;;3.10;1.40;;;;;;;33.28;22.65;100166.81;5011741;28;20201;-72
2022/08/13 07:31:45;;;;;;;5.15;1.27;;;;;;;32.69;23.19;100158.75;4996994;28;20577;-72
2022/08/13 07:34:10;;;;;;;2.88;0.95;;;;;;;32.09;23.32;100164.91;5016506;28;20229;-72
2022/08/13 07:36:37;;;;;;;2.28;1.40;;;;;;;31.44;23.64;100171.56;5009792;28;20187;-73
2022/08/13 07:39:09;;;;;;;2.22;1.20;;;;;;;32.00;23.31;100173.22;5011287;28;20193;-72
2022/08/13 07:41:40;;;;;;;5.07;1.10;;;;;;;32.65;23.38;100162.94;5025362;28;20259;-72
2022/08/13 07:44:11;;;;;;;3.97;1.17;;;;;;;32.05;23.24;100158.41;5014927;28;20190;-72
2022/08/13 07:46:44;;;;;;;2.30;0.80;;;;;;;30.87;24.56;100156.50;5009862;28;20213;-72
2022/08/13 07:49:12;;;;;;;2.00;1.02;;;;;;;31.15;24.38;100155.31;5013195;28;20222;-73
2022/08/13 07:51:38;;;;;;;2.78;1.25;;;;;;;30.99;24.27;100159.28;5014790;28;20535;-73
2022/08/13 07:54:06;;;;;;;3.15;1.25;;;;;;;31.24;24.21;100159.28;5012161;28;20261;-73
2022/08/13 07:56:32;;;;;;;2.55;1.08;;;;;;;32.46;22.87;100156.84;5010484;28;20289;-73
2022/08/13 07:59:01;;;;;;;1.25;1.13;;;;;;;32.39;23.23;100164.13;5014806;28;20197;-73
2022/08/13 08:01:27;;;;;;;1.52;1.08;;;;;;;32.85;22.52;100165.31;5017738;28;20225;-73
2022/08/13 08:03:57;;;;;;;1.23;1.02;;;;;;;32.00;23.07;100172.38;5029037;28;20198;-73
2022/08/13 08:06:23;;;;;;;3.38;1.30;;;;;;;33.19;22.26;100162.88;5014922;28;20186;-72
2022/08/13 08:08:52;;;;;;;1.23;1.00;;;;;;;30.74;24.44;100168.06;5012927;28;20717;-72
2022/08/13 08:14:04;;;;;;;3.25;1.30;;;;;;;33.58;21.96;100165.09;5020882;28;20268;-71
2022/08/13 08:16:31;;;;;;;4.32;1.58;;;;;;;32.91;22.80;100159.06;5014945;28;20171;-70
2022/08/13 08:18:58;;;;;;;5.40;1.08;;;;;;;31.18;24.16;100160.97;5013169;28;20198;-70
2022/08/13 08:21:24;;;;;;;4.32;1.30;;;;;;;31.93;24.10;100169.81;5017358;28;20239;-70
2022/08/13 08:23:55;;;;;;;4.72;1.50;;;;;;;33.44;22.29;100159.16;5023930;28;20174;-71
2022/08/13 08:26:20;;;;;;;4.10;0.85;;;;;;;34.08;20.98;100156.47;5012816;28;20237;-71
2022/08/13 08:28:47;;;;;;;3.90;1.10;;;;;;;32.33;22.43;100160.53;5012897;28;20186;-71
2022/08/13 08:31:12;;;;;;;3.08;1.20;;;;;;;32.96;22.51;100158.38;5022474;28;20726;-72
2022/08/13 08:33:41;;;;;;;1.05;1.05;;;;;;;32.86;22.00;100156.28;5027777;28;20211;-71
2022/08/13 08:36:07;;;;;;;2.88;1.05;;;;;;;33.86;21.15;100155.50;5012242;28;20175;-72
2022/08/13 08:44:12;;;;;;;4.22;1.50;;;;;;;32.91;22.30;100160.88;5016830;28;20193;-75
2022/08/13 08:46:39;;;;;;;1.90;1.10;;;;;;;33.02;21.75;100164.63;5014143;28;20183;-75
2022/08/13 08:49:07;;;;;;;1.35;0.90;;;;;;;32.54;22.67;100158.38;5014982;28;20224;-76
2022/08/13 08:51:33;;;;;;;2.67;1.30;;;;;;;32.25;22.45;100167.00;5027721;28;20229;-74
2022/08/13 08:54:01;;;;;;;9.10;1.30;;;;;;;32.78;22.03;100146.75;5015510;28;20281;-74
2022/08/13 08:56:28;;;;;;;1.42;0.85;;;;;;;33.72;21.16;100146.94;5012489;28;20240;-71
2022/08/13 08:58:55;;;;;;;5.18;1.10;;;;;;;33.74;21.75;100151.00;5011969;28;20377;-72
2022/08/13 09:01:24;;;;;;;3.78;1.00;;;;;;;36.43;19.35;100152.25;5016204;28;20243;-73
2022/08/13 09:03:53;;;;;;;2.63;1.20;;;;;;;37.26;17.79;100156.31;5023322;28;20186;-73
2022/08/13 09:06:20;;;;;;;6.15;1.15;;;;;;;36.25;18.48;100156.91;5011763;28;20723;-73
2022/08/13 09:08:46;;;;;;;2.55;1.10;;;;;;;35.47;19.21;100149.06;5012859;28;20262;-72
2022/08/13 09:11:19;;;;;;;4.95;1.20;;;;;;;36.71;18.00;100144.97;5022128;28;20274;-73
2022/08/13 09:13:47;;;;;;;4.38;1.25;;;;;;;34.67;20.08;100135.84;5017630;28;20298;-72
2022/08/13 09:16:13;;;;;;;1.70;1.20;;;;;;;34.30;20.20;100142.44;5012679;28;20595;-74
2022/08/13 09:18:39;;;;;;;1.95;1.33;;;;;;;34.59;20.34;100137.88;5009865;28;20313;-73
2022/08/13 09:21:06;;;;;;;2.22;1.10;;;;;;;35.60;19.46;100138.00;5040079;28;20218;-75
2022/08/13 09:23:33;;;;;;;3.08;1.02;;;;;;;34.32;20.89;100148.34;5009479;28;20183;-72
2022/08/13 09:25:58;;;;;;;3.42;1.20;;;;;;;34.58;20.71;100138.94;5010845;28;20183;-72
2022/08/13 09:28:24;;;;;;;1.70;1.20;;;;;;;33.57;21.28;100150.13;5013130;28;20595;-72
2022/08/13 09:30:52;;;;;;;2.78;1.30;;;;;;;33.78;21.49;100140.66;5011560;28;20221;-71
2022/08/13 09:33:23;;;;;;;3.97;1.20;;;;;;;35.63;19.95;100136.69;5021271;28;20340;-72
2022/08/13 09:35:51;;;;;;;1.70;1.20;;;;;;;37.56;17.44;100136.09;5044375;28;20269;-71
2022/08/13 09:38:20;;;;;;;4.13;1.10;;;;;;;35.41;19.45;100137.50;5012262;28;20190;-73
2022/08/13 09:40:55;;;;;;;1.17;1.05;;;;;;;35.05;19.93;100126.28;5009747;28;20876;-73
2022/08/13 09:43:36;;;;;;;2.80;1.08;;;;;;;35.03;19.90;100133.75;5030831;28;20190;-71
2022/08/13 09:46:04;;;;;;;2.03;1.20;;;;;;;35.39;19.55;100127.03;5025351;28;20206;-73
2022/08/13 09:48:30;;;;;;;2.25;1.35;;;;;;;35.38;19.42;100127.31;5011112;28;20266;-73
2022/08/13 09:50:55;;;;;;;2.38;1.40;;;;;;;33.11;21.32;100128.59;5012040;28;20367;-72
2022/08/13 09:53:25;;;;;;;1.90;1.38;;;;;;;34.80;19.78;100113.34;5018699;28;20238;-73
2022/08/13 09:55:52;;;;;;;3.47;1.27;;;;;;;36.24;18.53;100125.03;5012798;28;20179;-74
2022/08/13 09:58:17;;;;;;;2.35;1.20;;;;;;;37.56;17.69;100117.31;5011482;28;20339;-76
2022/08/13 10:00:45;;;;;;;2.97;1.30;;;;;;;35.85;18.60;100120.63;5010187;28;20225;-76
2022/08/13 10:03:10;;;;;;;2.70;1.17;;;;;;;35.78;18.49;100111.97;5033725;28;20190;-74
2022/08/13 10:05:36;;;;;;;2.13;1.00;;;;;;;35.56;18.95;100120.81;5012451;28;20193;-75
2022/08/13 10:08:03;;;;;;;2.42;1.30;;;;;;;35.53;19.21;100121.31;5010646;28;20223;-76
2022/08/13 10:10:29;;;;;;;5.90;1.10;;;;;;;37.13;17.22;100115.50;5008048;28;20229;-78
2022/08/13 10:12:56;;;;;;;1.95;1.27;;;;;;;38.30;16.70;100104.59;5023279;28;20218;-75
2022/08/13 10:15:21;;;;;;;1.33;1.10;;;;;;;38.84;15.27;100100.50;5050660;28;20314;-69
2022/08/13 10:17:49;;;;;;;1.27;1.15;;;;;;;37.81;16.79;100110.38;5011104;28;20273;-71
2022/08/13 10:20:17;;;;;;;6.35;1.30;;;;;;;36.32;18.21;100103.13;5002833;28;20194;-72
2022/08/13 10:22:43;;;;;;;4.68;1.15;;;;;;;36.03;18.22;100095.38;5021301;28;20198;-73
2022/08/13 10:25:09;;;;;;;1.20;1.10;;;;;;;36.52;17.99;100091.81;5009158;28;20175;-73
2022/08/13 10:27:35;;;;;;;2.22;1.20;;;;;;;38.43;16.98;100087.91;5010657;28;20193;-74
2022/08/13 10:30:03;;;;;;;2.47;1.17;;;;;;;35.86;18.60;100093.59;5010983;28;20190;-74
2022/08/13 10:32:28;;;;;;;1.00;0.90;;;;;;;34.59;19.18;100081.78;4982868;28;20230;-76
2022/08/13 10:34:54;;;;;;;2.38;1.10;;;;;;;32.65;20.77;100073.19;5000614;28;20178;-76
2022/08/13 10:37:21;;;;;;;3.97;1.30;;;;;;;32.44;21.08;100077.22;5002872;28;20276;-75
2022/08/13 10:39:47;;;;;;;6.05;1.20;;;;;;;31.22;22.78;100077.16;5009061;28;20185;-74
2022/08/13 10:42:12;;;;;;;5.22;1.25;;;;;;;30.62;23.86;100069.72;5017859;28;20224;-73
2022/08/13 10:44:38;;;;;;;2.70;1.20;;;;;;;31.12;23.53;100071.53;5010203;28;20181;-76
2022/08/13 10:47:04;;;;;;;1.80;1.20;;;;;;;30.68;24.13;100062.75;5010177;28;20182;-73
2022/08/13 10:49:31;;;;;;;1.45;1.35;;;;;;;31.40;23.80;100056.91;5012013;28;20660;-76
2022/08/13 10:51:57;;;;;;;4.68;1.25;;;;;;;31.52;22.97;100049.81;5030879;28;20255;-74
2022/08/13 10:54:25;;;;;;;1.20;1.10;;;;;;;30.15;24.76;100059.41;5011902;28;20178;-73
2022/08/13 10:56:50;;;;;;;1.70;1.35;;;;;;;28.98;26.00;100055.75;5012105;28;20258;-73
2022/08/13 10:59:15;;;;;;;5.03;1.23;;;;;;;28.65;26.46;100050.44;5010255;28;20193;-73
2022/08/13 11:01:40;;;;;;;1.80;1.25;;;;;;;28.75;26.15;100042.13;5017677;28;20568;-73
2022/08/13 11:04:06;;;;;;;3.53;1.27;;;;;;;28.79;26.61;100041.53;5009616;28;20314;-73
2022/08/13 11:06:34;;;;;;;2.83;1.25;;;;;;;29.06;26.49;100044.16;5009959;28;20183;-73
2022/08/13 11:09:00;;;;;;;1.60;1.27;;;;;;;28.98;26.12;100039.84;5043165;28;20187;-74
2022/08/13 11:11:26;;;;;;;1.48;1.38;;;;;;;29.07;26.13;100043.09;5023099;28;20225;-72
2022/08/13 11:13:51;;;;;;;1.85;1.10;;;;;;;29.03;26.18;100038.44;5014871;28;20221;-76
2022/08/13 11:18:55;;;;;;;1.80;1.38;;;;;;;29.03;26.28;100035.81;5020455;28;20187;-73
2022/08/13 11:21:21;;;;;;;1.60;1.50;;;;;;;28.96;26.43;100028.69;5013789;28;20232;-75
2022/08/13 11:23:47;;;;;;;1.77;1.40;;;;;;;29.34;25.89;100023.72;5015206;28;20273;-80
2022/08/13 11:26:12;;;;;;;3.03;1.50;;;;;;;29.38;26.32;100022.28;5011313;28;20262;-80
2022/08/13 11:28:37;;;;;;;3.50;1.48;;;;;;;29.21;25.84;100028.00;5001614;28;20171;-79
2022/08/13 11:31:03;;;;;;;1.33;1.23;;;;;;;28.71;26.27;100020.56;4993346;28;20718;-77
2022/08/13 11:33:28;;;;;;;1.27;1.17;;;;;;;28.96;25.95;100018.09;5032101;28;20209;-78
2022/08/13 11:35:53;;;;;;;1.40;1.30;;;;;;;29.02;25.03;100013.78;5015368;28;20589;-75
2022/08/13 11:38:22;;;;;;;2.35;1.23;;;;;;;29.12;25.10;100011.50;5015496;28;20191;-81
2022/08/13 11:40:56;;;;;;;1.17;1.02;;;;;;;28.84;25.63;100011.81;5014054;28;20232;-76
2022/08/13 11:43:23;;;;;;;2.03;1.30;;;;;;;29.17;26.74;100018.84;5027731;28;20671;-77
2022/08/13 11:45:49;;;;;;;2.85;1.67;;;;;;;29.08;25.29;100010.31;5015754;28;20249;-78
2022/08/13 11:48:16;;;;;;;1.52;1.30;;;;;;;28.94;25.96;100014.84;5018519;28;20178;-74